createdAt,value
2022-09-24T00:01:22.326Z,86.53
2022-09-24T00:03:53.798Z,87.35
2022-09-24T00:06:21.541Z,125.75
2022-09-24T00:08:49.665Z,95.45
2022-09-24T00:11:19.795Z,96.30
2022-09-24T00:13:47.677Z,93.45
2022-09-24T00:16:16.185Z,88.78
2022-09-24T00:18:43.594Z,92.63
2022-09-24T00:21:18.099Z,94.53
2022-09-24T00:23:45.439Z,95.05
2022-09-24T00:26:31.847Z,98.82
2022-09-24T00:28:59.525Z,96.88
2022-09-24T00:31:27.293Z,100.15
2022-09-24T00:33:54.972Z,95.85
2022-09-24T00:36:22.851Z,98.18
2022-09-24T00:38:54.529Z,105.60
2022-09-24T00:43:49.394Z,100.07
2022-09-24T00:46:35.185Z,100.22
2022-09-24T00:49:05.103Z,102.03
2022-09-24T00:51:33.274Z,104.15
2022-09-24T00:54:02.172Z,107.03
2022-09-24T00:56:31.224Z,112.97
2022-09-24T00:59:01.360Z,114.72
2022-09-24T01:01:29.709Z,116.78
2022-09-24T01:03:58.133Z,109.28
2022-09-24T01:06:26.113Z,116.18
2022-09-24T01:08:54.422Z,112.88
2022-09-24T01:11:34.652Z,112.55
2022-09-24T01:14:19.915Z,117.18
2022-09-24T01:17:05.750Z,111.57
2022-09-24T01:19:32.932Z,115.38
2022-09-24T01:22:05.128Z,121.22
2022-09-24T01:24:36.056Z,122.75
2022-09-24T01:27:06.392Z,125.20
2022-09-24T01:29:48.047Z,136.20
2022-09-24T01:32:18.863Z,128.85
2022-09-24T01:35:00.561Z,118.93
2022-09-24T01:37:29.690Z,135.63
2022-09-24T01:39:57.865Z,134.18
2022-09-24T01:42:26.901Z,135.77
2022-09-24T01:44:55.258Z,131.82
2022-09-24T01:47:35.133Z,131.80
2022-09-24T01:50:03.071Z,131.52
2022-09-24T01:52:36.579Z,133.02
2022-09-24T01:55:05.050Z,135.48
2022-09-24T01:57:39.078Z,131.52
2022-09-24T02:00:12.924Z,122.35
2022-09-24T02:02:45.285Z,128.75
2022-09-24T02:05:19.637Z,125.78
2022-09-24T02:07:51.708Z,129.80
2022-09-24T02:10:21.054Z,134.82
2022-09-24T02:12:52.661Z,142.13
2022-09-24T02:17:50.284Z,132.05
2022-09-24T02:20:18.812Z,139.25
2022-09-24T02:22:46.750Z,145.73
2022-09-24T02:25:15.329Z,144.18
2022-09-24T02:27:42.569Z,146.70
2022-09-24T02:30:10.996Z,151.25
2022-09-24T02:32:40.616Z,147.10
2022-09-24T02:35:09.824Z,154.68
2022-09-24T02:37:38.739Z,152.05
2022-09-24T02:40:07.140Z,160.88
2022-09-24T02:42:35.115Z,156.20
2022-09-24T02:45:04.340Z,159.85
2022-09-24T02:47:31.610Z,174.57
2022-09-24T02:49:58.815Z,179.95
2022-09-24T02:52:26.065Z,168.20
2022-09-24T02:54:53.248Z,174.82
2022-09-24T02:57:20.503Z,173.43
2022-09-24T02:59:47.921Z,180.80
2022-09-24T03:02:15.390Z,183.30
2022-09-24T03:04:42.915Z,177.40
2022-09-24T03:07:11.510Z,178.18
2022-09-24T03:09:38.755Z,180.55
2022-09-24T03:12:05.994Z,181.48
2022-09-24T03:14:33.326Z,174.68
2022-09-24T03:17:00.523Z,175.48
2022-09-24T03:19:27.717Z,193.60
2022-09-24T03:21:54.958Z,195.40
2022-09-24T03:24:22.161Z,196.68
2022-09-24T03:26:49.410Z,192.30
2022-09-24T03:29:16.618Z,183.25
2022-09-24T03:31:43.966Z,202.35
2022-09-24T03:34:11.296Z,181.23
2022-09-24T03:36:38.528Z,200.38
2022-09-24T03:39:05.773Z,201.32
2022-09-24T03:41:33.060Z,198.52
2022-09-24T03:44:00.265Z,193.27
2022-09-24T03:46:28.548Z,201.18
2022-09-24T03:48:56.191Z,194.07
2022-09-24T03:51:23.475Z,180.30
2022-09-24T03:53:50.718Z,177.63
2022-09-24T03:56:17.971Z,173.73
2022-09-24T03:58:47.585Z,177.50
2022-09-24T04:01:20.606Z,162.43
2022-09-24T04:03:48.691Z,157.63
2022-09-24T04:06:16.049Z,160.40
2022-09-24T04:08:43.309Z,143.70
2022-09-24T04:11:10.551Z,132.60
2022-09-24T04:13:37.779Z,122.05
2022-09-24T04:16:05.366Z,123.15
2022-09-24T04:18:36.967Z,129.45
2022-09-24T04:21:06.258Z,119.80
2022-09-24T04:23:33.535Z,122.00
2022-09-24T04:26:02.406Z,115.63
2022-09-24T04:28:30.486Z,109.85
2022-09-24T04:30:58.164Z,109.88
2022-09-24T04:33:25.553Z,121.03
2022-09-24T04:35:52.929Z,113.93
2022-09-24T04:38:21.456Z,142.88
2022-09-24T04:40:49.050Z,156.27
2022-09-24T04:43:16.936Z,154.07
2022-09-24T04:45:45.813Z,160.30
2022-09-24T04:48:13.435Z,171.82
2022-09-24T04:50:45.484Z,166.35
2022-09-24T04:53:13.497Z,162.50
2022-09-24T04:55:41.838Z,153.02
2022-09-24T04:58:09.449Z,133.45
2022-09-24T05:00:36.953Z,130.02
2022-09-24T05:03:04.300Z,133.30
2022-09-24T05:05:32.829Z,117.38
2022-09-24T05:08:01.611Z,108.82
2022-09-24T05:10:29.432Z,106.47
2022-09-24T05:12:56.787Z,105.35
2022-09-24T05:15:23.994Z,116.35
2022-09-24T05:17:51.230Z,104.30
2022-09-24T05:20:18.495Z,97.88
2022-09-24T05:22:46.321Z,100.47
2022-09-24T05:25:14.174Z,95.05
2022-09-24T05:27:47.164Z,87.70
2022-09-24T05:30:14.715Z,84.20
2022-09-24T05:32:42.142Z,81.32
2022-09-24T05:35:09.621Z,78.18
2022-09-24T05:37:37.295Z,73.93
2022-09-24T05:40:24.185Z,67.30
2022-09-24T05:42:51.858Z,53.42
2022-09-24T05:45:19.179Z,60.75
2022-09-24T05:47:46.978Z,50.10
2022-09-24T05:50:14.636Z,38.92
2022-09-24T05:52:42.889Z,35.80
2022-09-24T05:55:10.850Z,35.15
2022-09-24T05:57:38.384Z,34.40
2022-09-24T06:00:06.803Z,29.15
2022-09-24T06:02:34.102Z,26.05
2022-09-24T06:05:01.466Z,25.85
2022-09-24T06:07:28.737Z,21.45
2022-09-24T06:09:59.139Z,30.52
2022-09-24T06:12:26.452Z,13.40
2022-09-24T06:14:54.160Z,30.05
2022-09-24T06:17:21.733Z,23.00
2022-09-24T06:19:49.090Z,30.55
2022-09-24T06:22:16.344Z,28.15
2022-09-24T06:24:43.617Z,27.15
2022-09-24T06:27:10.914Z,20.38
2022-09-24T06:29:38.180Z,18.75
2022-09-24T06:32:05.549Z,38.42
2022-09-24T06:34:32.952Z,56.40
2022-09-24T06:37:00.686Z,70.95
2022-09-24T06:39:27.937Z,101.60
2022-09-24T06:41:55.197Z,89.93
2022-09-24T06:44:22.410Z,109.18
2022-09-24T06:46:49.681Z,108.93
2022-09-24T06:49:16.937Z,122.90
2022-09-24T06:51:44.186Z,122.35
2022-09-24T06:54:11.400Z,121.30
2022-09-24T06:56:38.643Z,139.63
2022-09-24T06:59:06.677Z,153.00
2022-09-24T07:01:34.106Z,128.90
2022-09-24T07:04:01.529Z,139.75
2022-09-24T07:06:48.812Z,129.57
2022-09-24T07:09:16.053Z,135.85
2022-09-24T07:11:46.587Z,129.80
2022-09-24T07:14:14.208Z,134.30
2022-09-24T07:16:41.484Z,123.57
2022-09-24T07:19:08.830Z,116.55
2022-09-24T07:21:36.072Z,113.63
2022-09-24T07:24:03.462Z,108.45
2022-09-24T07:26:30.711Z,94.45
2022-09-24T07:28:57.956Z,63.53
2022-09-24T07:31:26.375Z,54.45
2022-09-24T07:33:53.865Z,45.90
2022-09-24T07:36:21.112Z,38.38
2022-09-24T07:38:48.427Z,41.22
2022-09-24T07:41:15.673Z,36.20
2022-09-24T07:43:43.890Z,38.17
2022-09-24T07:46:11.253Z,39.05
2022-09-24T07:48:38.604Z,35.20
2022-09-24T07:51:06.361Z,38.35
2022-09-24T07:53:33.651Z,29.00
2022-09-24T07:56:01.289Z,24.20
2022-09-24T07:58:28.548Z,25.65
2022-09-24T08:00:58.815Z,27.58
2022-09-24T08:03:26.119Z,31.88
2022-09-24T08:05:57.292Z,25.23
2022-09-24T08:08:24.575Z,24.45
2022-09-24T08:10:51.924Z,27.95
2022-09-24T08:13:22.696Z,29.75
2022-09-24T08:16:01.942Z,20.23
2022-09-24T08:18:29.760Z,17.20
2022-09-24T08:20:56.965Z,17.08
2022-09-24T08:23:24.388Z,18.20
2022-09-24T08:25:51.632Z,13.98
2022-09-24T08:28:19.803Z,12.60
2022-09-24T08:30:47.165Z,13.25
2022-09-24T08:33:15.484Z,9.43
2022-09-24T08:35:42.793Z,8.57
2022-09-24T08:38:10.390Z,8.93
2022-09-24T08:40:40.245Z,12.43
2022-09-24T08:43:19.899Z,20.27
2022-09-24T08:46:08.979Z,9.30
2022-09-24T08:48:39.112Z,9.30
2022-09-24T08:51:09.558Z,10.25
2022-09-24T08:53:55.785Z,9.98
2022-09-24T08:56:27.630Z,9.80
2022-09-24T08:59:02.172Z,12.95
2022-09-24T09:01:36.881Z,10.13
2022-09-24T09:04:08.390Z,8.85
2022-09-24T09:06:56.030Z,9.68
2022-09-24T09:09:41.933Z,7.80
2022-09-24T09:12:14.600Z,8.30
2022-09-24T09:14:44.771Z,7.80
2022-09-24T09:17:32.231Z,8.35
2022-09-24T09:20:01.878Z,8.23
2022-09-24T09:22:31.476Z,8.70
2022-09-24T09:25:03.863Z,9.23
2022-09-24T09:27:31.828Z,10.05
2022-09-24T09:29:59.811Z,9.80
2022-09-24T09:32:30.559Z,8.73
2022-09-24T09:35:00.521Z,9.63
2022-09-24T09:37:30.043Z,16.00
2022-09-24T09:40:17.178Z,8.32
2022-09-24T09:42:45.525Z,9.23
2022-09-24T09:45:28.381Z,10.20
2022-09-24T09:47:57.112Z,10.88
2022-09-24T09:50:39.256Z,14.77
2022-09-24T09:53:06.530Z,15.88
2022-09-24T09:55:37.526Z,13.50
2022-09-24T09:58:11.018Z,14.10
2022-09-24T10:00:38.913Z,14.00
2022-09-24T10:03:06.367Z,11.38
2022-09-24T10:05:33.830Z,7.82
2022-09-24T10:08:01.167Z,8.27
2022-09-24T10:10:29.282Z,9.38
2022-09-24T10:13:09.532Z,8.43
2022-09-24T10:15:45.412Z,10.80
2022-09-24T10:18:15.136Z,11.77
2022-09-24T10:20:48.198Z,10.13
2022-09-24T10:23:21.185Z,7.20
2022-09-24T10:25:52.383Z,10.15
2022-09-24T10:28:39.996Z,9.23
2022-09-24T10:31:12.151Z,8.25
2022-09-24T10:33:44.389Z,12.13
2022-09-24T10:36:20.943Z,9.10
2022-09-24T10:38:48.268Z,15.55
2022-09-24T10:41:17.412Z,13.68
2022-09-24T10:43:51.485Z,20.55
2022-09-24T10:46:37.879Z,15.43
2022-09-24T10:49:17.551Z,14.63
2022-09-24T10:52:00.153Z,15.02
2022-09-24T10:54:36.226Z,15.65
2022-09-24T10:57:25.885Z,16.05
2022-09-24T11:00:04.586Z,15.60
2022-09-24T11:02:31.877Z,16.50
2022-09-24T11:05:10.019Z,14.32
2022-09-24T11:07:43.032Z,14.15
2022-09-24T11:10:10.442Z,13.05
2022-09-24T11:12:56.140Z,12.70
2022-09-24T11:15:41.740Z,13.60
2022-09-24T11:18:46.803Z,15.18
2022-09-24T11:21:14.045Z,16.33
2022-09-24T11:23:44.023Z,10.95
2022-09-24T11:26:34.448Z,14.10
2022-09-24T11:29:01.613Z,19.27
2022-09-24T11:31:35.244Z,15.15
2022-09-24T11:34:21.620Z,16.38
2022-09-24T11:37:11.337Z,14.80
2022-09-24T11:40:04.988Z,13.85
2022-09-24T11:42:32.238Z,15.55
2022-09-24T11:45:18.040Z,12.93
2022-09-24T11:48:02.214Z,14.68
2022-09-24T11:50:51.703Z,13.38
2022-09-24T11:53:27.393Z,13.20
2022-09-24T11:55:59.460Z,14.48
2022-09-24T11:58:39.516Z,12.65
2022-09-24T12:01:18.650Z,12.50
2022-09-24T12:03:53.166Z,15.27
2022-09-24T12:06:31.266Z,16.27
2022-09-24T12:09:13.591Z,15.35
2022-09-24T12:11:43.599Z,25.90
2022-09-24T12:14:15.389Z,14.88
2022-09-24T12:16:44.527Z,21.95
2022-09-24T12:19:17.586Z,28.15
2022-09-24T12:21:46.417Z,24.92
2022-09-24T12:24:19.777Z,25.30
2022-09-24T12:26:47.869Z,20.05
2022-09-24T12:29:36.768Z,26.55
2022-09-24T12:32:25.375Z,21.85
2022-09-24T12:34:58.581Z,28.60
2022-09-24T12:37:29.148Z,28.00
2022-09-24T12:40:04.167Z,22.35
2022-09-24T12:42:36.606Z,21.70
2022-09-24T12:45:05.036Z,14.43
2022-09-24T12:47:33.840Z,17.55
2022-09-24T12:50:02.794Z,18.58
2022-09-24T12:52:40.043Z,13.23
2022-09-24T12:55:18.880Z,22.88
2022-09-24T12:57:51.357Z,18.08
2022-09-24T13:00:37.500Z,18.40
2022-09-24T13:03:06.366Z,12.57
2022-09-24T13:05:43.055Z,11.98
2022-09-24T13:08:22.871Z,15.35
2022-09-24T13:11:06.929Z,15.45
2022-09-24T13:13:36.103Z,8.93
2022-09-24T13:16:07.893Z,13.55
2022-09-24T13:18:36.510Z,12.25
2022-09-24T13:21:10.227Z,6.68
2022-09-24T13:23:37.788Z,12.25
2022-09-24T13:26:06.821Z,12.35
2022-09-24T13:28:44.886Z,13.07
2022-09-24T13:31:30.506Z,13.47
2022-09-24T13:34:05.965Z,11.30
2022-09-24T13:36:33.196Z,7.95
2022-09-24T13:39:17.877Z,9.00
2022-09-24T13:41:57.835Z,11.25
2022-09-24T13:44:34.224Z,12.23
2022-09-24T13:47:20.379Z,10.45
2022-09-24T13:49:48.699Z,12.77
2022-09-24T13:52:36.180Z,13.98
2022-09-24T13:55:17.204Z,9.27
2022-09-24T13:57:45.388Z,12.73
2022-09-24T14:00:16.462Z,7.65
2022-09-24T14:02:45.379Z,8.57
2022-09-24T14:05:17.052Z,9.90
2022-09-24T14:10:14.963Z,13.35
2022-09-24T14:12:42.147Z,9.90
2022-09-24T14:15:18.344Z,14.93
2022-09-24T14:17:55.983Z,8.13
2022-09-24T14:20:23.462Z,14.77
2022-09-24T14:22:50.874Z,8.68
2022-09-24T14:25:31.266Z,7.60
2022-09-24T14:27:59.864Z,9.18
2022-09-24T14:30:29.274Z,7.38
2022-09-24T14:33:01.671Z,9.82
2022-09-24T14:35:32.702Z,10.88
2022-09-24T14:38:04.530Z,12.40
2022-09-24T14:40:39.778Z,8.48
2022-09-24T14:43:07.393Z,8.75
2022-09-24T14:45:37.686Z,7.40
2022-09-24T14:48:06.257Z,18.23
2022-09-24T14:50:40.824Z,13.63
2022-09-24T14:53:23.720Z,10.90
2022-09-24T14:55:51.097Z,12.00
2022-09-24T14:58:31.433Z,12.20
2022-09-24T15:01:00.545Z,10.27
2022-09-24T15:03:28.365Z,9.75
2022-09-24T15:06:14.616Z,12.85
2022-09-24T15:08:42.759Z,11.48
2022-09-24T15:11:17.210Z,7.88
2022-09-24T15:13:44.476Z,9.35
2022-09-24T15:16:32.076Z,9.05
2022-09-24T15:19:06.001Z,13.98
2022-09-24T15:21:33.594Z,8.63
2022-09-24T15:24:00.865Z,13.13
2022-09-24T15:26:31.990Z,6.75
2022-09-24T15:28:59.895Z,9.18
2022-09-24T15:31:27.252Z,7.57
2022-09-24T15:33:56.026Z,9.02
2022-09-24T15:36:23.987Z,8.18
2022-09-24T15:38:52.392Z,10.18
2022-09-24T15:41:20.257Z,11.82
2022-09-24T15:43:47.467Z,11.60
2022-09-24T15:46:14.918Z,9.05
2022-09-24T15:48:42.141Z,14.25
2022-09-24T15:51:15.422Z,11.60
2022-09-24T15:53:43.007Z,11.98
2022-09-24T15:56:10.248Z,15.05
2022-09-24T15:58:37.690Z,11.90
2022-09-24T16:01:05.118Z,7.05
2022-09-24T16:03:33.476Z,11.73
2022-09-24T16:06:01.031Z,22.05
2022-09-24T16:08:28.296Z,10.27
2022-09-24T16:10:55.541Z,6.97
2022-09-24T16:13:23.311Z,8.57
2022-09-24T16:15:50.700Z,9.80
2022-09-24T16:18:18.136Z,7.55
2022-09-24T16:20:46.259Z,6.25
2022-09-24T16:23:14.881Z,11.10
2022-09-24T16:25:55.483Z,12.38
2022-09-24T16:28:22.883Z,13.65
2022-09-24T16:30:50.170Z,8.77
2022-09-24T16:33:17.519Z,9.50
2022-09-24T16:35:44.792Z,8.07
2022-09-24T16:38:12.089Z,6.90
2022-09-24T16:40:39.422Z,18.77
2022-09-24T16:43:06.935Z,18.20
2022-09-24T16:45:34.455Z,16.75
2022-09-24T16:48:01.842Z,14.13
2022-09-24T16:50:29.057Z,20.63
2022-09-24T16:52:56.328Z,9.25
2022-09-24T16:55:24.200Z,14.55
2022-09-24T16:57:52.282Z,11.55
2022-09-24T17:00:20.124Z,8.43
2022-09-24T17:02:47.427Z,7.75
2022-09-24T17:05:14.852Z,10.05
2022-09-24T17:07:42.074Z,17.83
2022-09-24T17:10:13.745Z,15.07
2022-09-24T17:15:08.713Z,14.00
2022-09-24T17:17:44.298Z,16.60
2022-09-24T17:20:15.848Z,14.38
2022-09-24T17:22:43.110Z,16.60
2022-09-24T17:25:10.572Z,17.30
2022-09-24T17:27:40.049Z,11.63
2022-09-24T17:30:07.719Z,12.48
2022-09-24T17:32:34.948Z,18.30
2022-09-24T17:35:02.224Z,11.68
2022-09-24T17:37:29.500Z,16.80
2022-09-24T17:39:57.496Z,12.13
2022-09-24T17:42:24.891Z,12.95
2022-09-24T17:44:52.091Z,12.90
2022-09-24T17:47:19.339Z,13.80
2022-09-24T17:49:46.579Z,7.20
2022-09-24T17:52:13.884Z,10.57
2022-09-24T17:54:41.134Z,15.35
2022-09-24T17:57:08.476Z,13.35
2022-09-24T17:59:36.073Z,13.65
2022-09-24T18:02:06.695Z,8.63
2022-09-24T18:04:38.338Z,4.37
2022-09-24T18:07:05.679Z,11.38
2022-09-24T18:09:33.011Z,16.45
2022-09-24T18:12:00.219Z,12.15
2022-09-24T18:14:27.621Z,11.05
2022-09-24T18:16:54.962Z,8.40
2022-09-24T18:19:23.042Z,10.27
2022-09-24T18:21:50.389Z,16.60
2022-09-24T18:24:18.069Z,8.52
2022-09-24T18:26:48.369Z,9.50
2022-09-24T18:31:44.810Z,14.80
2022-09-24T18:34:13.379Z,14.20
2022-09-24T18:36:41.449Z,6.43
2022-09-24T18:39:11.858Z,13.88
2022-09-24T18:41:39.295Z,5.75
2022-09-24T18:44:06.683Z,7.90
2022-09-24T18:46:34.697Z,10.02
2022-09-24T18:49:02.419Z,9.32
2022-09-24T18:51:33.556Z,11.40
2022-09-24T18:54:03.182Z,16.17
2022-09-24T18:56:31.286Z,6.10
2022-09-24T18:59:07.157Z,9.75
2022-09-24T19:01:37.235Z,12.27
2022-09-24T19:04:04.849Z,10.80
2022-09-24T19:06:34.515Z,8.85
2022-09-24T19:09:01.845Z,9.15
2022-09-24T19:11:31.504Z,15.75
2022-09-24T19:13:59.436Z,10.40
2022-09-24T19:16:26.676Z,10.35
2022-09-24T19:18:54.448Z,6.47
2022-09-24T19:21:24.279Z,15.82
2022-09-24T19:23:52.731Z,10.13
2022-09-24T19:26:24.596Z,6.07
2022-09-24T19:31:21.941Z,10.38
2022-09-24T19:33:50.047Z,7.28
2022-09-24T19:36:17.626Z,16.17
2022-09-24T19:38:45.460Z,9.50
2022-09-24T19:41:18.472Z,10.57
2022-09-24T19:43:46.115Z,30.88
2022-09-24T19:46:14.964Z,46.65
2022-09-24T19:48:43.517Z,14.82
2022-09-24T19:51:17.868Z,10.88
2022-09-24T19:53:48.003Z,9.32
2022-09-24T19:56:16.390Z,11.52
2022-09-24T19:58:47.227Z,8.32
2022-09-24T20:01:17.289Z,10.83
2022-09-24T20:03:45.291Z,12.57
2022-09-24T20:06:14.305Z,13.27
2022-09-24T20:08:42.332Z,12.32
2022-09-24T20:11:11.360Z,5.47
2022-09-24T20:13:40.535Z,10.75
2022-09-24T20:16:08.356Z,15.60
2022-09-24T20:18:36.371Z,14.18
2022-09-24T20:21:05.086Z,8.25
2022-09-24T20:23:32.734Z,8.38
2022-09-24T20:26:18.632Z,15.00
2022-09-24T20:28:45.880Z,13.00
2022-09-24T20:31:15.053Z,10.57
2022-09-24T20:33:43.136Z,6.32
2022-09-24T20:36:16.030Z,4.72
2022-09-24T20:38:45.685Z,8.07
2022-09-24T20:41:14.348Z,10.52
2022-09-24T20:43:41.577Z,6.65
2022-09-24T20:46:10.548Z,12.27
2022-09-24T20:48:38.027Z,13.85
2022-09-24T20:51:09.161Z,12.60
2022-09-24T20:53:36.833Z,10.35
2022-09-24T20:56:05.975Z,9.45
2022-09-24T20:58:33.896Z,17.13
2022-09-24T21:01:01.310Z,16.65
2022-09-24T21:03:43.764Z,8.02
2022-09-24T21:06:12.207Z,12.40
2022-09-24T21:08:40.708Z,7.00
2022-09-24T21:11:09.595Z,15.05
2022-09-24T21:13:41.066Z,8.55
2022-09-24T21:16:09.560Z,15.25
2022-09-24T21:18:40.414Z,9.35
2022-09-24T21:21:08.889Z,16.60
2022-09-24T21:23:38.007Z,7.40
2022-09-24T21:26:31.648Z,10.73
2022-09-24T21:29:00.384Z,15.00
2022-09-24T21:31:29.052Z,18.13
2022-09-24T21:33:56.575Z,14.63
2022-09-24T21:36:25.182Z,11.85
2022-09-24T21:38:55.520Z,7.07
2022-09-24T21:41:24.384Z,18.05
2022-09-24T21:43:53.521Z,9.50
2022-09-24T21:46:20.850Z,11.15
2022-09-24T21:48:48.260Z,9.02
2022-09-24T21:51:20.172Z,10.13
2022-09-24T21:53:47.802Z,7.47
2022-09-24T21:56:16.795Z,9.32
2022-09-24T21:58:44.059Z,12.60
2022-09-24T22:01:16.626Z,12.45
2022-09-24T22:03:45.498Z,12.25
2022-09-24T22:06:13.186Z,8.32
2022-09-24T22:08:40.624Z,11.80
2022-09-24T22:11:11.680Z,16.13
2022-09-24T22:13:39.668Z,11.23
2022-09-24T22:16:07.957Z,11.43
2022-09-24T22:18:35.540Z,12.02
2022-09-24T22:21:06.716Z,13.00
2022-09-24T22:23:33.993Z,13.38
2022-09-24T22:26:01.276Z,16.40
2022-09-24T22:28:28.982Z,6.70
2022-09-24T22:30:57.694Z,11.93
2022-09-24T22:33:44.040Z,13.80
2022-09-24T22:36:11.502Z,13.68
2022-09-24T22:38:39.236Z,12.30
2022-09-24T22:41:08.359Z,14.30
2022-09-24T22:43:35.795Z,15.27
2022-09-24T22:46:04.448Z,13.38
2022-09-24T22:48:32.636Z,7.40
2022-09-24T22:50:59.850Z,18.92
2022-09-24T22:53:27.102Z,12.63
2022-09-24T22:56:30.123Z,12.68
2022-09-24T22:58:58.855Z,11.32
2022-09-24T23:01:28.057Z,6.45
2022-09-24T23:03:56.388Z,10.75
2022-09-24T23:06:23.766Z,15.02
2022-09-24T23:08:51.984Z,12.25
2022-09-24T23:11:20.425Z,10.88
2022-09-24T23:13:52.235Z,15.13
2022-09-24T23:16:21.578Z,13.00
2022-09-24T23:18:49.465Z,12.93
2022-09-24T23:21:17.698Z,13.25
2022-09-24T23:23:45.267Z,16.52
2022-09-24T23:26:16.416Z,10.32
2022-09-24T23:31:12.682Z,14.93
2022-09-24T23:33:40.554Z,12.43
2022-09-24T23:36:08.761Z,12.05
2022-09-24T23:38:36.041Z,13.48
2022-09-24T23:41:04.200Z,10.32
2022-09-24T23:43:31.808Z,16.90
2022-09-24T23:45:59.132Z,16.23
2022-09-24T23:48:26.678Z,11.95
2022-09-24T23:50:53.938Z,9.27
2022-09-24T23:53:24.668Z,11.48
2022-09-24T23:55:53.210Z,12.35
2022-09-24T23:58:21.361Z,11.30
